createdAt,value
2023-04-09T00:01:10.638Z,11.03
2023-04-09T00:03:38.154Z,10.99
2023-04-09T00:06:05.491Z,10.91
2023-04-09T00:08:32.081Z,10.91
2023-04-09T00:10:59.682Z,10.94
2023-04-09T00:13:38.636Z,10.99
2023-04-09T00:16:06.182Z,11.01
2023-04-09T00:18:32.787Z,11.04
2023-04-09T00:20:59.428Z,11.02
2023-04-09T00:23:26.115Z,11.02
2023-04-09T00:25:52.794Z,11.01
2023-04-09T00:28:19.413Z,11.05
2023-04-09T00:30:46.147Z,11.04
2023-04-09T00:33:12.799Z,11.00
2023-04-09T00:35:39.416Z,10.88
2023-04-09T00:38:06.008Z,10.90
2023-04-09T00:40:32.723Z,10.96
2023-04-09T00:42:59.384Z,10.90
2023-04-09T00:45:26.036Z,10.86
2023-04-09T00:47:53.249Z,10.77
2023-04-09T00:50:20.064Z,10.71
2023-04-09T00:52:46.804Z,10.66
2023-04-09T00:55:13.892Z,10.65
2023-04-09T00:57:40.489Z,10.59
2023-04-09T01:00:07.926Z,10.57
2023-04-09T01:02:34.969Z,10.55
2023-04-09T01:05:01.797Z,10.56
2023-04-09T01:07:36.976Z,10.60
2023-04-09T01:10:21.112Z,10.64
2023-04-09T01:13:09.333Z,10.70
2023-04-09T01:15:42.440Z,10.72
2023-04-09T01:18:19.136Z,10.75
2023-04-09T01:20:56.926Z,10.79
2023-04-09T01:23:45.450Z,10.73
2023-04-09T01:26:38.275Z,10.75
2023-04-09T01:29:07.089Z,10.76
2023-04-09T01:31:38.319Z,10.72
2023-04-09T01:34:08.782Z,10.76
2023-04-09T01:36:38.209Z,10.82
2023-04-09T01:39:06.342Z,10.85
2023-04-09T01:41:35.485Z,10.89
2023-04-09T01:44:04.439Z,10.92
2023-04-09T01:46:31.349Z,10.96
2023-04-09T01:48:58.590Z,10.96
2023-04-09T01:51:27.373Z,10.95
2023-04-09T01:53:54.381Z,10.95
2023-04-09T01:56:21.419Z,10.89
2023-04-09T01:58:48.102Z,10.88
2023-04-09T02:01:21.493Z,10.87
2023-04-09T02:03:54.246Z,10.89
2023-04-09T02:06:32.560Z,10.91
2023-04-09T02:09:01.910Z,10.97
2023-04-09T02:11:30.920Z,10.99
2023-04-09T02:13:58.543Z,11.01
2023-04-09T02:16:25.906Z,11.01
2023-04-09T02:19:01.259Z,11.01
2023-04-09T02:21:29.082Z,10.97
2023-04-09T02:23:58.739Z,10.93
2023-04-09T02:26:25.499Z,10.91
2023-04-09T02:28:52.255Z,10.91
2023-04-09T02:31:19.081Z,10.91
2023-04-09T02:33:45.846Z,10.88
2023-04-09T02:36:13.246Z,10.83
2023-04-09T02:38:42.856Z,10.90
2023-04-09T02:41:09.883Z,10.89
2023-04-09T02:43:36.912Z,10.90
2023-04-09T02:46:03.760Z,10.90
2023-04-09T02:48:30.461Z,10.93
2023-04-09T02:50:57.308Z,10.96
2023-04-09T02:53:24.125Z,10.96
2023-04-09T02:55:50.755Z,10.97
2023-04-09T02:58:17.304Z,11.01
2023-04-09T03:00:43.860Z,11.00
2023-04-09T03:03:10.725Z,11.03
2023-04-09T03:05:38.047Z,11.06
2023-04-09T03:08:04.736Z,11.09
2023-04-09T03:10:31.361Z,11.10
2023-04-09T03:12:59.142Z,11.12
2023-04-09T03:15:25.870Z,11.12
2023-04-09T03:17:52.496Z,11.11
2023-04-09T03:20:19.160Z,11.09
2023-04-09T03:22:45.768Z,11.09
2023-04-09T03:25:12.384Z,11.08
2023-04-09T03:27:38.969Z,11.07
2023-04-09T03:30:06.137Z,11.06
2023-04-09T03:32:32.779Z,11.03
2023-04-09T03:34:59.373Z,11.02
2023-04-09T03:37:25.948Z,10.99
2023-04-09T03:39:52.540Z,10.97
2023-04-09T03:42:19.113Z,10.98
2023-04-09T03:44:45.789Z,10.93
2023-04-09T03:47:12.424Z,10.90
2023-04-09T03:49:39.061Z,10.88
2023-04-09T03:52:07.272Z,10.78
2023-04-09T03:54:33.790Z,10.74
2023-04-09T03:57:01.476Z,10.70
2023-04-09T03:59:28.077Z,10.67
2023-04-09T04:01:54.700Z,10.60
2023-04-09T04:04:23.548Z,10.59
2023-04-09T04:06:50.571Z,10.58
2023-04-09T04:09:17.200Z,10.62
2023-04-09T04:11:43.786Z,10.64
2023-04-09T04:14:10.381Z,10.66
2023-04-09T04:16:36.995Z,10.69
2023-04-09T04:19:03.644Z,10.68
2023-04-09T04:21:30.243Z,10.68
2023-04-09T04:23:56.830Z,10.72
2023-04-09T04:26:23.472Z,10.73
2023-04-09T04:28:50.294Z,10.75
2023-04-09T04:31:17.108Z,10.77
2023-04-09T04:33:43.737Z,10.76
2023-04-09T04:36:12.524Z,10.74
2023-04-09T04:38:41.284Z,10.68
2023-04-09T04:41:08.090Z,10.72
2023-04-09T04:43:34.964Z,10.74
2023-04-09T04:46:01.624Z,10.72
2023-04-09T04:48:29.238Z,10.70
2023-04-09T04:50:57.614Z,10.72
2023-04-09T04:53:24.377Z,10.71
2023-04-09T04:55:51.430Z,10.71
2023-04-09T04:58:18.151Z,10.72
2023-04-09T05:00:45.270Z,10.72
2023-04-09T05:03:13.759Z,10.79
2023-04-09T05:05:40.393Z,10.82
2023-04-09T05:08:07.058Z,10.85
2023-04-09T05:10:33.835Z,10.84
2023-04-09T05:13:00.429Z,10.86
2023-04-09T05:15:27.099Z,10.85
2023-04-09T05:17:54.251Z,10.90
2023-04-09T05:20:20.994Z,10.92
2023-04-09T05:22:47.609Z,10.95
2023-04-09T05:25:16.216Z,11.00
2023-04-09T05:27:43.164Z,11.04
2023-04-09T05:30:10.378Z,11.13
2023-04-09T05:32:37.606Z,11.19
2023-04-09T05:35:04.719Z,11.25
2023-04-09T05:37:31.801Z,11.27
2023-04-09T05:39:58.493Z,11.29
2023-04-09T05:42:25.159Z,11.38
2023-04-09T05:44:51.777Z,11.44
2023-04-09T05:47:18.409Z,11.54
2023-04-09T05:49:45.249Z,11.60
2023-04-09T05:52:11.869Z,11.66
2023-04-09T05:54:38.507Z,11.77
2023-04-09T05:57:05.212Z,11.92
2023-04-09T05:59:31.820Z,11.96
2023-04-09T06:01:58.545Z,12.07
2023-04-09T06:04:25.268Z,12.03
2023-04-09T06:06:52.059Z,12.11
2023-04-09T06:09:18.757Z,12.12
2023-04-09T06:11:45.400Z,12.06
2023-04-09T06:14:18.021Z,11.98
2023-04-09T06:16:44.659Z,11.99
2023-04-09T06:19:12.543Z,12.00
2023-04-09T06:21:40.714Z,11.95
2023-04-09T06:24:07.278Z,12.04
2023-04-09T06:26:33.830Z,12.08
2023-04-09T06:29:00.440Z,12.11
2023-04-09T06:31:30.183Z,12.22
2023-04-09T06:33:57.216Z,12.25
2023-04-09T06:36:23.787Z,12.21
2023-04-09T06:38:52.299Z,12.37
2023-04-09T06:41:23.710Z,12.41
2023-04-09T06:43:53.425Z,12.54
2023-04-09T06:46:21.328Z,12.44
2023-04-09T06:48:49.298Z,12.52
2023-04-09T06:51:16.016Z,12.63
2023-04-09T06:53:42.770Z,12.84
2023-04-09T06:56:09.545Z,12.61
2023-04-09T06:58:36.809Z,12.63
2023-04-09T07:01:03.793Z,12.78
2023-04-09T07:03:32.167Z,12.82
2023-04-09T07:05:59.266Z,12.58
2023-04-09T07:08:28.634Z,12.58
2023-04-09T07:10:56.558Z,12.65
2023-04-09T07:13:23.164Z,12.83
2023-04-09T07:15:49.867Z,12.95
2023-04-09T07:18:16.495Z,12.86
2023-04-09T07:20:43.072Z,12.77
2023-04-09T07:23:09.758Z,12.63
2023-04-09T07:25:36.463Z,12.65
2023-04-09T07:28:03.178Z,12.68
2023-04-09T07:30:29.886Z,12.86
2023-04-09T07:32:56.615Z,12.79
2023-04-09T07:35:23.363Z,12.71
2023-04-09T07:37:49.996Z,12.78
2023-04-09T07:40:17.167Z,12.79
2023-04-09T07:42:43.768Z,12.97
2023-04-09T07:45:10.399Z,13.00
2023-04-09T07:47:38.451Z,13.18
2023-04-09T07:50:05.773Z,13.46
2023-04-09T07:52:32.380Z,13.74
2023-04-09T07:54:58.979Z,13.59
2023-04-09T07:57:25.549Z,13.70
2023-04-09T07:59:53.482Z,13.62
2023-04-09T08:02:20.097Z,13.69
2023-04-09T08:04:46.921Z,13.60
2023-04-09T08:07:13.710Z,13.67
2023-04-09T08:09:40.430Z,13.73
2023-04-09T08:12:07.012Z,13.68
2023-04-09T08:14:33.601Z,13.71
2023-04-09T08:17:00.284Z,13.91
2023-04-09T08:19:26.983Z,14.91
2023-04-09T08:21:53.608Z,14.91
2023-04-09T08:24:20.164Z,14.73
2023-04-09T08:26:47.060Z,14.95
2023-04-09T08:29:15.604Z,15.67
2023-04-09T08:31:42.534Z,15.77
2023-04-09T08:34:09.263Z,15.86
2023-04-09T08:36:36.121Z,17.05
2023-04-09T08:39:03.438Z,17.14
2023-04-09T08:41:30.506Z,17.07
2023-04-09T08:43:59.266Z,17.60
2023-04-09T08:46:27.326Z,16.86
2023-04-09T08:48:57.243Z,17.65
2023-04-09T08:51:24.780Z,18.33
2023-04-09T08:54:04.339Z,18.96
2023-04-09T08:56:31.797Z,18.09
2023-04-09T08:58:58.654Z,17.59
2023-04-09T09:01:33.353Z,18.49
2023-04-09T09:04:08.311Z,19.08
2023-04-09T09:06:38.307Z,19.69
2023-04-09T09:09:09.950Z,18.87
2023-04-09T09:11:38.944Z,18.84
2023-04-09T09:14:11.284Z,18.76
2023-04-09T09:16:44.248Z,18.36
2023-04-09T09:19:30.567Z,19.31
2023-04-09T09:22:01.851Z,19.38
2023-04-09T09:24:28.754Z,19.23
2023-04-09T09:26:55.873Z,19.09
2023-04-09T09:29:22.593Z,18.38
2023-04-09T09:31:51.915Z,17.86
2023-04-09T09:34:20.000Z,18.59
2023-04-09T09:36:47.229Z,17.84
2023-04-09T09:39:17.641Z,18.65
2023-04-09T09:41:46.040Z,18.73
2023-04-09T09:44:30.085Z,19.67
2023-04-09T09:46:58.688Z,20.89
2023-04-09T09:49:25.387Z,20.70
2023-04-09T09:51:56.096Z,20.22
2023-04-09T09:54:25.581Z,19.07
2023-04-09T09:56:55.947Z,17.89
2023-04-09T09:59:32.698Z,18.44
2023-04-09T10:02:06.045Z,17.98
2023-04-09T10:04:36.118Z,18.06
2023-04-09T10:07:05.866Z,17.34
2023-04-09T10:09:41.641Z,17.05
2023-04-09T10:12:10.819Z,16.75
2023-04-09T10:14:38.109Z,16.96
2023-04-09T10:17:04.701Z,16.34
2023-04-09T10:19:35.628Z,16.25
2023-04-09T10:22:13.886Z,16.51
2023-04-09T10:24:41.307Z,16.20
2023-04-09T10:27:15.100Z,16.29
2023-04-09T10:29:48.004Z,16.32
2023-04-09T10:32:26.868Z,16.09
2023-04-09T10:34:57.538Z,16.05
2023-04-09T10:37:25.960Z,16.69
2023-04-09T10:39:53.613Z,17.11
2023-04-09T10:42:27.423Z,17.84
2023-04-09T10:45:14.970Z,18.02
2023-04-09T10:47:43.873Z,18.20
2023-04-09T10:50:17.460Z,17.55
2023-04-09T10:52:44.503Z,17.17
2023-04-09T10:55:30.333Z,17.80
2023-04-09T10:57:58.162Z,17.98
2023-04-09T11:00:24.833Z,18.04
2023-04-09T11:03:04.716Z,18.15
2023-04-09T11:05:34.165Z,17.99
2023-04-09T11:08:11.190Z,18.36
2023-04-09T11:10:42.555Z,18.54
2023-04-09T11:13:13.816Z,18.65
2023-04-09T11:15:40.920Z,16.84
2023-04-09T11:18:09.780Z,16.40
2023-04-09T11:20:37.044Z,16.45
2023-04-09T11:23:03.756Z,17.09
2023-04-09T11:25:32.446Z,17.04
2023-04-09T11:27:59.477Z,16.27
2023-04-09T11:30:26.375Z,16.26
2023-04-09T11:32:53.204Z,16.74
2023-04-09T11:35:21.491Z,17.83
2023-04-09T11:37:50.091Z,18.52
2023-04-09T11:40:18.832Z,18.09
2023-04-09T11:42:46.103Z,18.01
2023-04-09T11:45:15.778Z,17.99
2023-04-09T11:47:44.176Z,17.45
2023-04-09T11:50:12.651Z,18.09
2023-04-09T11:52:41.325Z,17.10
2023-04-09T11:55:11.378Z,16.66
2023-04-09T11:57:46.580Z,16.75
2023-04-09T12:00:16.747Z,17.15
2023-04-09T12:02:48.646Z,17.24
2023-04-09T12:05:24.658Z,16.75
2023-04-09T12:07:56.424Z,16.78
2023-04-09T12:10:32.583Z,16.96
2023-04-09T12:13:03.443Z,17.33
2023-04-09T12:15:35.372Z,17.64
2023-04-09T12:18:02.333Z,17.67
2023-04-09T12:20:34.944Z,17.84
2023-04-09T12:23:04.562Z,17.83
2023-04-09T12:25:36.801Z,17.87
2023-04-09T12:28:05.725Z,18.13
2023-04-09T12:30:33.294Z,18.82
2023-04-09T12:33:00.436Z,18.08
2023-04-09T12:35:27.275Z,18.16
2023-04-09T12:37:54.634Z,18.87
2023-04-09T12:40:21.271Z,18.49
2023-04-09T12:42:48.487Z,18.05
2023-04-09T12:45:17.995Z,19.00
2023-04-09T12:47:45.046Z,19.27
2023-04-09T12:50:13.075Z,18.14
2023-04-09T12:52:39.769Z,17.93
2023-04-09T12:55:07.610Z,17.99
2023-04-09T12:57:34.719Z,18.61
2023-04-09T13:00:01.365Z,18.37
2023-04-09T13:02:28.235Z,18.06
2023-04-09T13:04:54.940Z,18.01
2023-04-09T13:07:22.781Z,18.17
2023-04-09T13:09:52.606Z,18.07
2023-04-09T13:12:21.589Z,17.90
2023-04-09T13:14:51.422Z,17.64
2023-04-09T13:17:18.025Z,17.27
2023-04-09T13:19:44.698Z,17.38
2023-04-09T13:22:11.461Z,17.43
2023-04-09T13:24:39.553Z,17.84
2023-04-09T13:27:09.258Z,17.01
2023-04-09T13:29:36.122Z,16.97
2023-04-09T13:32:07.056Z,17.29
2023-04-09T13:34:35.155Z,17.18
2023-04-09T13:37:02.991Z,17.19
2023-04-09T13:39:29.576Z,17.13
2023-04-09T13:41:56.677Z,17.03
2023-04-09T13:44:24.716Z,16.89
2023-04-09T13:46:51.475Z,16.88
2023-04-09T13:49:18.296Z,16.58
2023-04-09T13:51:45.014Z,16.49
2023-04-09T13:54:11.829Z,16.65
2023-04-09T13:56:39.347Z,16.59
2023-04-09T13:59:06.455Z,16.54
2023-04-09T14:01:34.132Z,16.85
2023-04-09T14:04:00.889Z,17.18
2023-04-09T14:06:28.028Z,16.78
2023-04-09T14:08:55.348Z,16.93
2023-04-09T14:11:22.110Z,17.18
2023-04-09T14:13:48.815Z,16.94
2023-04-09T14:16:15.708Z,16.94
2023-04-09T14:18:42.434Z,16.99
2023-04-09T14:21:10.398Z,16.93
2023-04-09T14:23:37.545Z,17.13
2023-04-09T14:26:06.508Z,16.97
2023-04-09T14:28:33.207Z,16.65
2023-04-09T14:30:59.921Z,16.90
2023-04-09T14:33:27.328Z,16.90
2023-04-09T14:35:53.938Z,16.80
2023-04-09T14:38:20.654Z,16.55
2023-04-09T14:40:47.478Z,16.05
2023-04-09T14:43:14.070Z,16.13
2023-04-09T14:45:41.064Z,16.19
2023-04-09T14:48:08.189Z,16.32
2023-04-09T14:50:36.637Z,16.03
2023-04-09T14:53:04.201Z,16.04
2023-04-09T14:55:31.033Z,16.11
2023-04-09T14:57:59.177Z,16.13
2023-04-09T15:00:26.048Z,16.12
2023-04-09T15:02:52.942Z,16.19
2023-04-09T15:05:19.725Z,16.03
2023-04-09T15:07:46.295Z,15.79
2023-04-09T15:10:12.970Z,15.97
2023-04-09T15:12:39.528Z,15.96
2023-04-09T15:15:07.921Z,15.85
2023-04-09T15:17:34.738Z,15.71
2023-04-09T15:20:01.494Z,15.64
2023-04-09T15:22:28.080Z,15.68
2023-04-09T15:24:54.631Z,15.51
2023-04-09T15:27:21.286Z,15.45
2023-04-09T15:29:47.822Z,15.49
2023-04-09T15:32:14.430Z,15.50
2023-04-09T15:34:41.026Z,15.55
2023-04-09T15:37:07.706Z,15.50
2023-04-09T15:39:35.377Z,15.42
2023-04-09T15:42:02.102Z,15.46
2023-04-09T15:44:28.836Z,15.44
2023-04-09T15:46:56.062Z,15.39
2023-04-09T15:49:23.217Z,15.14
2023-04-09T15:51:49.848Z,14.90
2023-04-09T15:54:16.642Z,14.77
2023-04-09T15:56:43.309Z,14.59
2023-04-09T15:59:10.024Z,14.62
2023-04-09T16:01:36.792Z,14.54
2023-04-09T16:04:04.850Z,14.47
2023-04-09T16:06:32.815Z,14.34
2023-04-09T16:08:59.466Z,14.29
2023-04-09T16:11:26.243Z,14.28
2023-04-09T16:13:53.224Z,14.31
2023-04-09T16:16:20.815Z,14.30
2023-04-09T16:18:47.661Z,14.31
2023-04-09T16:21:14.555Z,14.26
2023-04-09T16:23:41.516Z,14.26
2023-04-09T16:26:08.373Z,14.32
2023-04-09T16:28:34.980Z,14.39
2023-04-09T16:31:01.847Z,14.30
2023-04-09T16:33:28.398Z,14.20
2023-04-09T16:35:55.084Z,14.20
2023-04-09T16:38:23.606Z,14.22
2023-04-09T16:40:50.517Z,14.09
2023-04-09T16:43:17.156Z,14.10
2023-04-09T16:45:43.807Z,14.06
2023-04-09T16:48:12.575Z,14.08
2023-04-09T16:50:40.322Z,13.98
2023-04-09T16:53:07.733Z,13.98
2023-04-09T16:55:34.965Z,13.97
2023-04-09T16:58:01.842Z,13.81
2023-04-09T17:00:28.560Z,13.82
2023-04-09T17:02:56.525Z,13.76
2023-04-09T17:05:23.832Z,13.78
2023-04-09T17:07:50.615Z,13.66
2023-04-09T17:10:18.970Z,13.62
2023-04-09T17:12:45.845Z,13.62
2023-04-09T17:15:12.720Z,13.60
2023-04-09T17:17:39.391Z,13.52
2023-04-09T17:20:06.645Z,13.44
2023-04-09T17:22:35.102Z,13.42
2023-04-09T17:25:04.767Z,13.40
2023-04-09T17:27:31.414Z,13.37
2023-04-09T17:29:58.168Z,13.32
2023-04-09T17:32:24.830Z,13.32
2023-04-09T17:34:52.374Z,13.30
2023-04-09T17:37:19.005Z,13.25
2023-04-09T17:39:45.666Z,13.16
2023-04-09T17:42:12.350Z,13.11
2023-04-09T17:44:39.311Z,13.06
2023-04-09T17:47:07.592Z,13.09
2023-04-09T17:49:34.676Z,13.05
2023-04-09T17:52:01.657Z,13.08
2023-04-09T17:54:34.465Z,13.09
2023-04-09T17:57:02.446Z,13.01
2023-04-09T17:59:29.082Z,13.00
2023-04-09T18:01:56.760Z,12.99
2023-04-09T18:04:24.438Z,12.99
2023-04-09T18:06:51.440Z,13.01
2023-04-09T18:09:18.171Z,13.00
2023-04-09T18:11:45.631Z,13.00
2023-04-09T18:14:12.280Z,13.01
2023-04-09T18:16:39.519Z,12.99
2023-04-09T18:19:08.512Z,12.99
2023-04-09T18:21:37.850Z,12.97
2023-04-09T18:24:04.957Z,12.99
2023-04-09T18:26:34.001Z,12.97
2023-04-09T18:29:01.822Z,12.99
2023-04-09T18:31:29.971Z,12.98
2023-04-09T18:33:56.610Z,12.96
2023-04-09T18:36:23.465Z,12.99
2023-04-09T18:38:50.084Z,12.97
2023-04-09T18:41:24.160Z,12.98
2023-04-09T18:43:51.095Z,12.96
2023-04-09T18:46:18.341Z,12.94
2023-04-09T18:48:47.120Z,12.93
2023-04-09T18:51:14.715Z,12.90
2023-04-09T18:53:42.235Z,12.84
2023-04-09T18:56:09.413Z,12.82
2023-04-09T18:58:36.465Z,12.76
2023-04-09T19:01:11.694Z,12.77
2023-04-09T19:03:39.774Z,12.75
2023-04-09T19:06:14.402Z,12.73
2023-04-09T19:08:41.612Z,12.74
2023-04-09T19:11:08.252Z,12.66
2023-04-09T19:13:35.537Z,12.59
2023-04-09T19:16:02.743Z,12.55
2023-04-09T19:18:30.397Z,12.48
2023-04-09T19:20:57.058Z,12.42
2023-04-09T19:23:23.800Z,12.47
2023-04-09T19:25:53.341Z,12.41
2023-04-09T19:28:20.042Z,12.37
2023-04-09T19:30:46.974Z,12.37
2023-04-09T19:33:13.662Z,12.35
2023-04-09T19:35:43.070Z,12.29
2023-04-09T19:38:09.931Z,12.31
2023-04-09T19:40:36.588Z,12.29
2023-04-09T19:43:03.206Z,12.26
2023-04-09T19:45:29.813Z,12.28
2023-04-09T19:47:56.518Z,12.27
2023-04-09T19:50:23.300Z,12.30
2023-04-09T19:52:49.892Z,12.35
2023-04-09T19:55:16.588Z,12.34
2023-04-09T19:57:44.298Z,12.31
2023-04-09T20:00:11.505Z,12.28
2023-04-09T20:02:39.633Z,12.27
2023-04-09T20:05:06.595Z,12.22
2023-04-09T20:07:34.238Z,12.23
2023-04-09T20:10:01.046Z,12.27
2023-04-09T20:12:29.662Z,12.29
2023-04-09T20:14:57.352Z,12.33
2023-04-09T20:17:24.561Z,12.34
2023-04-09T20:19:51.491Z,12.40
2023-04-09T20:22:20.087Z,12.45
2023-04-09T20:24:48.101Z,12.50
2023-04-09T20:27:14.760Z,12.55
2023-04-09T20:29:41.617Z,12.57
2023-04-09T20:32:08.230Z,12.58
2023-04-09T20:34:34.904Z,12.55
2023-04-09T20:37:01.804Z,12.54
2023-04-09T20:39:28.396Z,12.57
2023-04-09T20:41:56.557Z,12.54
2023-04-09T20:44:24.479Z,12.54
2023-04-09T20:46:51.352Z,12.50
2023-04-09T20:49:18.086Z,12.48
2023-04-09T20:51:44.746Z,12.41
2023-04-09T20:54:11.291Z,12.45
2023-04-09T20:56:37.977Z,12.41
2023-04-09T20:59:04.608Z,12.41
2023-04-09T21:01:32.276Z,12.38
2023-04-09T21:03:59.048Z,12.33
2023-04-09T21:06:25.953Z,12.32
2023-04-09T21:08:52.957Z,12.28
2023-04-09T21:11:19.817Z,12.26
2023-04-09T21:13:54.430Z,12.25
2023-04-09T21:16:22.148Z,12.23
2023-04-09T21:18:49.016Z,12.23
2023-04-09T21:21:16.052Z,12.21
2023-04-09T21:23:45.558Z,12.20
2023-04-09T21:26:16.573Z,12.15
2023-04-09T21:28:43.157Z,12.09
2023-04-09T21:31:11.311Z,12.06
2023-04-09T21:33:39.275Z,12.06
2023-04-09T21:36:07.926Z,12.04
2023-04-09T21:38:34.882Z,12.00
2023-04-09T21:41:01.899Z,11.95
2023-04-09T21:43:29.247Z,11.96
2023-04-09T21:45:56.839Z,11.96
2023-04-09T21:48:23.543Z,11.91
2023-04-09T21:50:50.932Z,11.93
2023-04-09T21:53:17.793Z,11.90
2023-04-09T21:55:44.476Z,11.86
2023-04-09T21:58:12.678Z,11.85
2023-04-09T22:00:39.381Z,11.81
2023-04-09T22:03:06.154Z,11.72
2023-04-09T22:05:34.440Z,11.71
2023-04-09T22:08:01.144Z,11.68
2023-04-09T22:10:28.154Z,11.58
2023-04-09T22:12:54.760Z,11.57
2023-04-09T22:15:22.045Z,11.53
2023-04-09T22:17:48.777Z,11.47
2023-04-09T22:20:15.521Z,11.38
2023-04-09T22:22:42.481Z,11.38
2023-04-09T22:25:11.090Z,11.36
2023-04-09T22:27:39.182Z,11.32
2023-04-09T22:30:06.411Z,11.25
2023-04-09T22:32:35.853Z,11.22
2023-04-09T22:35:02.478Z,11.19
2023-04-09T22:37:29.148Z,11.16
2023-04-09T22:39:56.064Z,11.14
2023-04-09T22:42:22.829Z,11.13
2023-04-09T22:44:49.459Z,11.10
2023-04-09T22:47:16.213Z,11.07
2023-04-09T22:49:43.067Z,11.03
2023-04-09T22:52:09.675Z,10.97
2023-04-09T22:54:37.944Z,10.94
2023-04-09T22:57:04.572Z,10.89
2023-04-09T22:59:40.307Z,10.87
2023-04-09T23:02:08.011Z,10.82
2023-04-09T23:04:35.059Z,10.80
2023-04-09T23:07:02.450Z,10.76
2023-04-09T23:09:30.977Z,10.71
2023-04-09T23:11:57.983Z,10.66
2023-04-09T23:14:24.632Z,10.65
2023-04-09T23:16:51.302Z,10.62
2023-04-09T23:19:17.889Z,10.58
2023-04-09T23:21:44.495Z,10.54
2023-04-09T23:24:11.076Z,10.53
2023-04-09T23:26:37.652Z,10.47
2023-04-09T23:29:04.268Z,10.43
2023-04-09T23:31:31.005Z,10.39
2023-04-09T23:33:57.605Z,10.39
2023-04-09T23:36:24.337Z,10.38
2023-04-09T23:38:51.295Z,10.36
2023-04-09T23:41:17.926Z,10.34
2023-04-09T23:43:44.489Z,10.29
2023-04-09T23:46:11.267Z,10.21
2023-04-09T23:48:37.857Z,9.84
2023-04-09T23:51:04.705Z,9.77
2023-04-09T23:53:31.360Z,9.68
2023-04-09T23:55:58.614Z,9.70
2023-04-09T23:58:25.488Z,9.69
